Terminal Aerodrome Forecast
Issued by NWS Jackson, MS

Home | Current Version | Previous Version | Text Only | Print | Product List | Glossary On
Versions: 1 2 3 4 5 6 7 8 9 10 11 12 13 14
000
FTUS44 KJAN 291720
TAFGWO
TAF
KGWO 291720Z 2918/3018 14012KT P6SM SCT025 BKN090
     FM291930 16015G23KT P6SM VCTS BKN030CB BKN050
     FM292100 30010G20KT 3SM TSRA BKN030CB BKN050
     FM292300 03006KT P6SM VCTS SCT030 BKN050CB
     FM300400 13008KT P6SM SCT020 BKN040
     FM301000 16013KT 6SM BR VCSH BKN020 BKN040=

USA.gov is the U.S. government's official web portal to all federal, state and local government web resources and services.